<?xml version="1.0" encoding="UTF-8" standalone="no" ?>
<gpx xmlns="http://www.topografix.com/GPX/1/1" xmlns:xsi="http://www.w3.org/2001/XMLSchema-instance" xsi:schemaLocation="http://www.topografix.com/GPX/1/1 http://www.topografix.com/GPX/1/1/gpx.xsd" version="1.1" creator="VisuGPX - https://www.visugpx.com">
  <metadata>
    <name>Nisme - 18-02-2023</name>
  </metadata>
  <trk>
    <name><![CDATA[Enregistrement du 18/02/23]]></name>
    <extensions>
      <line xmlns="http://www.topografix.com/GPX/gpx_style/0/2">
        <color>0000FF</color>
        <width>4</width>
      </line>
    </extensions>
    <trkseg>
      <trkpt lat="50.06944" lon="4.54772">
        <ele>163</ele>
        <time>2023-02-18T09:06:28Z</time>
      </trkpt>
      <trkpt lat="50.06949" lon="4.54773">
        <ele>163</ele>
        <time>2023-02-18T09:06:35Z</time>
      </trkpt>
      <trkpt lat="50.06957" lon="4.54777">
        <ele>164</ele>
        <time>2023-02-18T09:06:42Z</time>
      </trkpt>
      <trkpt lat="50.06966" lon="4.54779">
        <ele>164</ele>
        <time>2023-02-18T09:06:49Z</time>
      </trkpt>
      <trkpt lat="50.06975" lon="4.54782">
        <ele>164</ele>
        <time>2023-02-18T09:06:58Z</time>
      </trkpt>
      <trkpt lat="50.06984" lon="4.54785">
        <ele>164</ele>
        <time>2023-02-18T09:07:05Z</time>
      </trkpt>
      <trkpt lat="50.06993" lon="4.54788">
        <ele>164</ele>
        <time>2023-02-18T09:07:11Z</time>
      </trkpt>
      <trkpt lat="50.07002" lon="4.54795">
        <ele>164</ele>
        <time>2023-02-18T09:07:17Z</time>
      </trkpt>
      <trkpt lat="50.07011" lon="4.54801">
        <ele>163</ele>
        <time>2023-02-18T09:07:25Z</time>
      </trkpt>
      <trkpt lat="50.0702" lon="4.54808">
        <ele>163</ele>
        <time>2023-02-18T09:07:30Z</time>
      </trkpt>
      <trkpt lat="50.0703" lon="4.54815">
        <ele>163</ele>
        <time>2023-02-18T09:07:36Z</time>
      </trkpt>
      <trkpt lat="50.07038" lon="4.54823">
        <ele>163</ele>
        <time>2023-02-18T09:07:41Z</time>
      </trkpt>
      <trkpt lat="50.07045" lon="4.54833">
        <ele>162</ele>
        <time>2023-02-18T09:07:47Z</time>
      </trkpt>
      <trkpt lat="50.07049" lon="4.54846">
        <ele>162</ele>
        <time>2023-02-18T09:07:55Z</time>
      </trkpt>
      <trkpt lat="50.0705" lon="4.5486">
        <ele>162</ele>
        <time>2023-02-18T09:08:04Z</time>
      </trkpt>
      <trkpt lat="50.07049" lon="4.54874">
        <ele>162</ele>
        <time>2023-02-18T09:08:10Z</time>
      </trkpt>
      <trkpt lat="50.07047" lon="4.54888">
        <ele>162</ele>
        <time>2023-02-18T09:08:16Z</time>
      </trkpt>
      <trkpt lat="50.07045" lon="4.54903">
        <ele>162</ele>
        <time>2023-02-18T09:08:23Z</time>
      </trkpt>
      <trkpt lat="50.07041" lon="4.54917">
        <ele>163</ele>
        <time>2023-02-18T09:08:30Z</time>
      </trkpt>
      <trkpt lat="50.0704" lon="4.54933">
        <ele>162</ele>
        <time>2023-02-18T09:08:39Z</time>
      </trkpt>
      <trkpt lat="50.0704" lon="4.54948">
        <ele>162</ele>
        <time>2023-02-18T09:08:46Z</time>
      </trkpt>
      <trkpt lat="50.07041" lon="4.54964">
        <ele>162</ele>
        <time>2023-02-18T09:08:53Z</time>
      </trkpt>
      <trkpt lat="50.07043" lon="4.54978">
        <ele>162</ele>
        <time>2023-02-18T09:09:01Z</time>
      </trkpt>
      <trkpt lat="50.07044" lon="4.54993">
        <ele>162</ele>
        <time>2023-02-18T09:09:07Z</time>
      </trkpt>
      <trkpt lat="50.07044" lon="4.55007">
        <ele>162</ele>
        <time>2023-02-18T09:09:17Z</time>
      </trkpt>
      <trkpt lat="50.07045" lon="4.55022">
        <ele>162</ele>
        <time>2023-02-18T09:09:27Z</time>
      </trkpt>
      <trkpt lat="50.0705" lon="4.55031">
        <ele>162</ele>
        <time>2023-02-18T09:09:35Z</time>
      </trkpt>
      <trkpt lat="50.07059" lon="4.55034">
        <ele>162</ele>
        <time>2023-02-18T09:09:47Z</time>
      </trkpt>
      <trkpt lat="50.07068" lon="4.55033">
        <ele>162</ele>
        <time>2023-02-18T09:09:55Z</time>
      </trkpt>
      <trkpt lat="50.07078" lon="4.55031">
        <ele>162</ele>
        <time>2023-02-18T09:10:03Z</time>
      </trkpt>
      <trkpt lat="50.07088" lon="4.55028">
        <ele>162</ele>
        <time>2023-02-18T09:10:11Z</time>
      </trkpt>
      <trkpt lat="50.07097" lon="4.55029">
        <ele>162</ele>
        <time>2023-02-18T09:10:25Z</time>
      </trkpt>
      <trkpt lat="50.07107" lon="4.55031">
        <ele>163</ele>
        <time>2023-02-18T09:10:34Z</time>
      </trkpt>
      <trkpt lat="50.07116" lon="4.55035">
        <ele>163</ele>
        <time>2023-02-18T09:10:40Z</time>
      </trkpt>
      <trkpt lat="50.07122" lon="4.55045">
        <ele>164</ele>
        <time>2023-02-18T09:10:47Z</time>
      </trkpt>
      <trkpt lat="50.07126" lon="4.55057">
        <ele>165</ele>
        <time>2023-02-18T09:10:56Z</time>
      </trkpt>
      <trkpt lat="50.07127" lon="4.55071">
        <ele>166</ele>
        <time>2023-02-18T09:11:06Z</time>
      </trkpt>
      <trkpt lat="50.07127" lon="4.55086">
        <ele>167</ele>
        <time>2023-02-18T09:11:15Z</time>
      </trkpt>
      <trkpt lat="50.07129" lon="4.55101">
        <ele>167</ele>
        <time>2023-02-18T09:11:23Z</time>
      </trkpt>
      <trkpt lat="50.07129" lon="4.55115">
        <ele>168</ele>
        <time>2023-02-18T09:11:32Z</time>
      </trkpt>
      <trkpt lat="50.0713" lon="4.55129">
        <ele>169</ele>
        <time>2023-02-18T09:11:42Z</time>
      </trkpt>
      <trkpt lat="50.07131" lon="4.55144">
        <ele>171</ele>
        <time>2023-02-18T09:11:53Z</time>
      </trkpt>
      <trkpt lat="50.07131" lon="4.55158">
        <ele>173</ele>
        <time>2023-02-18T09:12:04Z</time>
      </trkpt>
      <trkpt lat="50.07133" lon="4.55173">
        <ele>174</ele>
        <time>2023-02-18T09:12:15Z</time>
      </trkpt>
      <trkpt lat="50.07133" lon="4.55187">
        <ele>175</ele>
        <time>2023-02-18T09:12:25Z</time>
      </trkpt>
      <trkpt lat="50.0713" lon="4.552">
        <ele>176</ele>
        <time>2023-02-18T09:12:46Z</time>
      </trkpt>
      <trkpt lat="50.0713" lon="4.55214">
        <ele>177</ele>
        <time>2023-02-18T09:12:55Z</time>
      </trkpt>
      <trkpt lat="50.07133" lon="4.55229">
        <ele>178</ele>
        <time>2023-02-18T09:13:11Z</time>
      </trkpt>
      <trkpt lat="50.07136" lon="4.55244">
        <ele>179</ele>
        <time>2023-02-18T09:13:21Z</time>
      </trkpt>
      <trkpt lat="50.07139" lon="4.55257">
        <ele>181</ele>
        <time>2023-02-18T09:13:33Z</time>
      </trkpt>
      <trkpt lat="50.07141" lon="4.55272">
        <ele>181</ele>
        <time>2023-02-18T09:13:46Z</time>
      </trkpt>
      <trkpt lat="50.07144" lon="4.55286">
        <ele>182</ele>
        <time>2023-02-18T09:13:53Z</time>
      </trkpt>
      <trkpt lat="50.07147" lon="4.55299">
        <ele>183</ele>
        <time>2023-02-18T09:14:01Z</time>
      </trkpt>
      <trkpt lat="50.07152" lon="4.55313">
        <ele>183</ele>
        <time>2023-02-18T09:14:22Z</time>
      </trkpt>
      <trkpt lat="50.07155" lon="4.55326">
        <ele>184</ele>
        <time>2023-02-18T09:14:33Z</time>
      </trkpt>
      <trkpt lat="50.07161" lon="4.55339">
        <ele>186</ele>
        <time>2023-02-18T09:14:45Z</time>
      </trkpt>
      <trkpt lat="50.07166" lon="4.55352">
        <ele>187</ele>
        <time>2023-02-18T09:14:55Z</time>
      </trkpt>
      <trkpt lat="50.0717" lon="4.55365">
        <ele>188</ele>
        <time>2023-02-18T09:15:06Z</time>
      </trkpt>
      <trkpt lat="50.07174" lon="4.55378">
        <ele>189</ele>
        <time>2023-02-18T09:15:24Z</time>
      </trkpt>
      <trkpt lat="50.07179" lon="4.5539">
        <ele>190</ele>
        <time>2023-02-18T09:15:33Z</time>
      </trkpt>
      <trkpt lat="50.07184" lon="4.55403">
        <ele>190</ele>
        <time>2023-02-18T09:15:44Z</time>
      </trkpt>
      <trkpt lat="50.07186" lon="4.55417">
        <ele>191</ele>
        <time>2023-02-18T09:15:53Z</time>
      </trkpt>
      <trkpt lat="50.07189" lon="4.55431">
        <ele>192</ele>
        <time>2023-02-18T09:16:04Z</time>
      </trkpt>
      <trkpt lat="50.07192" lon="4.55444">
        <ele>192</ele>
        <time>2023-02-18T09:16:13Z</time>
      </trkpt>
      <trkpt lat="50.07197" lon="4.55457">
        <ele>193</ele>
        <time>2023-02-18T09:16:22Z</time>
      </trkpt>
      <trkpt lat="50.07203" lon="4.55469">
        <ele>193</ele>
        <time>2023-02-18T09:16:32Z</time>
      </trkpt>
      <trkpt lat="50.07205" lon="4.55482">
        <ele>194</ele>
        <time>2023-02-18T09:16:48Z</time>
      </trkpt>
      <trkpt lat="50.07207" lon="4.55496">
        <ele>195</ele>
        <time>2023-02-18T09:17:10Z</time>
      </trkpt>
      <trkpt lat="50.0721" lon="4.5551">
        <ele>196</ele>
        <time>2023-02-18T09:17:19Z</time>
      </trkpt>
      <trkpt lat="50.07214" lon="4.55522">
        <ele>197</ele>
        <time>2023-02-18T09:17:30Z</time>
      </trkpt>
      <trkpt lat="50.07219" lon="4.55535">
        <ele>198</ele>
        <time>2023-02-18T09:17:40Z</time>
      </trkpt>
      <trkpt lat="50.07224" lon="4.55547">
        <ele>199</ele>
        <time>2023-02-18T09:17:49Z</time>
      </trkpt>
      <trkpt lat="50.07229" lon="4.5556">
        <ele>200</ele>
        <time>2023-02-18T09:17:59Z</time>
      </trkpt>
      <trkpt lat="50.07235" lon="4.5557">
        <ele>201</ele>
        <time>2023-02-18T09:18:08Z</time>
      </trkpt>
      <trkpt lat="50.0724" lon="4.55583">
        <ele>202</ele>
        <time>2023-02-18T09:18:18Z</time>
      </trkpt>
      <trkpt lat="50.07245" lon="4.55595">
        <ele>202</ele>
        <time>2023-02-18T09:18:28Z</time>
      </trkpt>
      <trkpt lat="50.07248" lon="4.55609">
        <ele>202</ele>
        <time>2023-02-18T09:18:39Z</time>
      </trkpt>
      <trkpt lat="50.07251" lon="4.55623">
        <ele>203</ele>
        <time>2023-02-18T09:18:51Z</time>
      </trkpt>
      <trkpt lat="50.07253" lon="4.55637">
        <ele>203</ele>
        <time>2023-02-18T09:18:57Z</time>
      </trkpt>
      <trkpt lat="50.07254" lon="4.55652">
        <ele>204</ele>
        <time>2023-02-18T09:19:05Z</time>
      </trkpt>
      <trkpt lat="50.07259" lon="4.55663">
        <ele>205</ele>
        <time>2023-02-18T09:19:14Z</time>
      </trkpt>
      <trkpt lat="50.07265" lon="4.55675">
        <ele>206</ele>
        <time>2023-02-18T09:19:20Z</time>
      </trkpt>
      <trkpt lat="50.07268" lon="4.55689">
        <ele>206</ele>
        <time>2023-02-18T09:19:30Z</time>
      </trkpt>
      <trkpt lat="50.0727" lon="4.55703">
        <ele>206</ele>
        <time>2023-02-18T09:19:40Z</time>
      </trkpt>
      <trkpt lat="50.07275" lon="4.55715">
        <ele>207</ele>
        <time>2023-02-18T09:19:49Z</time>
      </trkpt>
      <trkpt lat="50.0728" lon="4.55727">
        <ele>207</ele>
        <time>2023-02-18T09:19:56Z</time>
      </trkpt>
      <trkpt lat="50.07286" lon="4.5574">
        <ele>208</ele>
        <time>2023-02-18T09:20:04Z</time>
      </trkpt>
      <trkpt lat="50.0729" lon="4.55753">
        <ele>208</ele>
        <time>2023-02-18T09:20:12Z</time>
      </trkpt>
      <trkpt lat="50.07293" lon="4.55767">
        <ele>208</ele>
        <time>2023-02-18T09:20:21Z</time>
      </trkpt>
      <trkpt lat="50.07296" lon="4.5578">
        <ele>208</ele>
        <time>2023-02-18T09:20:29Z</time>
      </trkpt>
      <trkpt lat="50.073" lon="4.55794">
        <ele>209</ele>
        <time>2023-02-18T09:20:38Z</time>
      </trkpt>
      <trkpt lat="50.07303" lon="4.55808">
        <ele>210</ele>
        <time>2023-02-18T09:20:46Z</time>
      </trkpt>
      <trkpt lat="50.07305" lon="4.55823">
        <ele>210</ele>
        <time>2023-02-18T09:20:54Z</time>
      </trkpt>
      <trkpt lat="50.07307" lon="4.55838">
        <ele>211</ele>
        <time>2023-02-18T09:21:07Z</time>
      </trkpt>
      <trkpt lat="50.07308" lon="4.55852">
        <ele>211</ele>
        <time>2023-02-18T09:21:18Z</time>
      </trkpt>
      <trkpt lat="50.07309" lon="4.55867">
        <ele>211</ele>
        <time>2023-02-18T09:21:26Z</time>
      </trkpt>
      <trkpt lat="50.07312" lon="4.55882">
        <ele>211</ele>
        <time>2023-02-18T09:21:34Z</time>
      </trkpt>
      <trkpt lat="50.07315" lon="4.55896">
        <ele>211</ele>
        <time>2023-02-18T09:21:41Z</time>
      </trkpt>
      <trkpt lat="50.07318" lon="4.55911">
        <ele>212</ele>
        <time>2023-02-18T09:21:50Z</time>
      </trkpt>
      <trkpt lat="50.0732" lon="4.55925">
        <ele>212</ele>
        <time>2023-02-18T09:21:58Z</time>
      </trkpt>
      <trkpt lat="50.07322" lon="4.55939">
        <ele>212</ele>
        <time>2023-02-18T09:22:06Z</time>
      </trkpt>
      <trkpt lat="50.07326" lon="4.55952">
        <ele>213</ele>
        <time>2023-02-18T09:22:15Z</time>
      </trkpt>
      <trkpt lat="50.0733" lon="4.55966">
        <ele>213</ele>
        <time>2023-02-18T09:22:25Z</time>
      </trkpt>
      <trkpt lat="50.07334" lon="4.5598">
        <ele>214</ele>
        <time>2023-02-18T09:22:35Z</time>
      </trkpt>
      <trkpt lat="50.07338" lon="4.55994">
        <ele>214</ele>
        <time>2023-02-18T09:22:44Z</time>
      </trkpt>
      <trkpt lat="50.07341" lon="4.56008">
        <ele>215</ele>
        <time>2023-02-18T09:22:53Z</time>
      </trkpt>
      <trkpt lat="50.07344" lon="4.56022">
        <ele>215</ele>
        <time>2023-02-18T09:23:00Z</time>
      </trkpt>
      <trkpt lat="50.07347" lon="4.56036">
        <ele>215</ele>
        <time>2023-02-18T09:23:10Z</time>
      </trkpt>
      <trkpt lat="50.07352" lon="4.56049">
        <ele>215</ele>
        <time>2023-02-18T09:23:19Z</time>
      </trkpt>
      <trkpt lat="50.07358" lon="4.56061">
        <ele>215</ele>
        <time>2023-02-18T09:23:27Z</time>
      </trkpt>
      <trkpt lat="50.07364" lon="4.56071">
        <ele>215</ele>
        <time>2023-02-18T09:23:33Z</time>
      </trkpt>
      <trkpt lat="50.07371" lon="4.56083">
        <ele>216</ele>
        <time>2023-02-18T09:23:45Z</time>
      </trkpt>
      <trkpt lat="50.07378" lon="4.56091">
        <ele>218</ele>
        <time>2023-02-18T09:23:54Z</time>
      </trkpt>
      <trkpt lat="50.07385" lon="4.561">
        <ele>218</ele>
        <time>2023-02-18T09:24:03Z</time>
      </trkpt>
      <trkpt lat="50.0739" lon="4.56112">
        <ele>218</ele>
        <time>2023-02-18T09:24:13Z</time>
      </trkpt>
      <trkpt lat="50.07393" lon="4.56125">
        <ele>219</ele>
        <time>2023-02-18T09:24:20Z</time>
      </trkpt>
      <trkpt lat="50.07396" lon="4.56139">
        <ele>219</ele>
        <time>2023-02-18T09:24:28Z</time>
      </trkpt>
      <trkpt lat="50.074" lon="4.56151">
        <ele>219</ele>
        <time>2023-02-18T09:24:37Z</time>
      </trkpt>
      <trkpt lat="50.07404" lon="4.56165">
        <ele>219</ele>
        <time>2023-02-18T09:24:44Z</time>
      </trkpt>
      <trkpt lat="50.07406" lon="4.56179">
        <ele>220</ele>
        <time>2023-02-18T09:24:53Z</time>
      </trkpt>
      <trkpt lat="50.07409" lon="4.56192">
        <ele>220</ele>
        <time>2023-02-18T09:25:00Z</time>
      </trkpt>
      <trkpt lat="50.07412" lon="4.56206">
        <ele>221</ele>
        <time>2023-02-18T09:25:12Z</time>
      </trkpt>
      <trkpt lat="50.07415" lon="4.5622">
        <ele>221</ele>
        <time>2023-02-18T09:25:18Z</time>
      </trkpt>
      <trkpt lat="50.07417" lon="4.56235">
        <ele>221</ele>
        <time>2023-02-18T09:25:28Z</time>
      </trkpt>
      <trkpt lat="50.0742" lon="4.56249">
        <ele>221</ele>
        <time>2023-02-18T09:25:36Z</time>
      </trkpt>
      <trkpt lat="50.07422" lon="4.56263">
        <ele>221</ele>
        <time>2023-02-18T09:25:43Z</time>
      </trkpt>
      <trkpt lat="50.07425" lon="4.56276">
        <ele>222</ele>
        <time>2023-02-18T09:25:51Z</time>
      </trkpt>
      <trkpt lat="50.07429" lon="4.56291">
        <ele>222</ele>
        <time>2023-02-18T09:26:00Z</time>
      </trkpt>
      <trkpt lat="50.07432" lon="4.56306">
        <ele>222</ele>
        <time>2023-02-18T09:26:09Z</time>
      </trkpt>
      <trkpt lat="50.07436" lon="4.5632">
        <ele>222</ele>
        <time>2023-02-18T09:26:21Z</time>
      </trkpt>
      <trkpt lat="50.07439" lon="4.56336">
        <ele>222</ele>
        <time>2023-02-18T09:26:29Z</time>
      </trkpt>
      <trkpt lat="50.07443" lon="4.56351">
        <ele>222</ele>
        <time>2023-02-18T09:26:38Z</time>
      </trkpt>
      <trkpt lat="50.07449" lon="4.56362">
        <ele>222</ele>
        <time>2023-02-18T09:26:45Z</time>
      </trkpt>
      <trkpt lat="50.07454" lon="4.56375">
        <ele>222</ele>
        <time>2023-02-18T09:26:52Z</time>
      </trkpt>
      <trkpt lat="50.07458" lon="4.56388">
        <ele>222</ele>
        <time>2023-02-18T09:27:04Z</time>
      </trkpt>
      <trkpt lat="50.07462" lon="4.56401">
        <ele>222</ele>
        <time>2023-02-18T09:27:13Z</time>
      </trkpt>
      <trkpt lat="50.07466" lon="4.56414">
        <ele>222</ele>
        <time>2023-02-18T09:27:22Z</time>
      </trkpt>
      <trkpt lat="50.0747" lon="4.56428">
        <ele>222</ele>
        <time>2023-02-18T09:27:31Z</time>
      </trkpt>
      <trkpt lat="50.07473" lon="4.56442">
        <ele>222</ele>
        <time>2023-02-18T09:27:39Z</time>
      </trkpt>
      <trkpt lat="50.07475" lon="4.56456">
        <ele>222</ele>
        <time>2023-02-18T09:27:50Z</time>
      </trkpt>
      <trkpt lat="50.07478" lon="4.5647">
        <ele>222</ele>
        <time>2023-02-18T09:27:58Z</time>
      </trkpt>
      <trkpt lat="50.07482" lon="4.56483">
        <ele>222</ele>
        <time>2023-02-18T09:28:04Z</time>
      </trkpt>
      <trkpt lat="50.07484" lon="4.56497">
        <ele>222</ele>
        <time>2023-02-18T09:28:13Z</time>
      </trkpt>
      <trkpt lat="50.07486" lon="4.56511">
        <ele>223</ele>
        <time>2023-02-18T09:28:20Z</time>
      </trkpt>
      <trkpt lat="50.07489" lon="4.56525">
        <ele>222</ele>
        <time>2023-02-18T09:28:28Z</time>
      </trkpt>
      <trkpt lat="50.07493" lon="4.56538">
        <ele>222</ele>
        <time>2023-02-18T09:28:35Z</time>
      </trkpt>
      <trkpt lat="50.07498" lon="4.56551">
        <ele>222</ele>
        <time>2023-02-18T09:28:45Z</time>
      </trkpt>
      <trkpt lat="50.07504" lon="4.56562">
        <ele>222</ele>
        <time>2023-02-18T09:28:55Z</time>
      </trkpt>
      <trkpt lat="50.0751" lon="4.56576">
        <ele>222</ele>
        <time>2023-02-18T09:29:07Z</time>
      </trkpt>
      <trkpt lat="50.07516" lon="4.56589">
        <ele>221</ele>
        <time>2023-02-18T09:29:13Z</time>
      </trkpt>
      <trkpt lat="50.07524" lon="4.56601">
        <ele>221</ele>
        <time>2023-02-18T09:29:22Z</time>
      </trkpt>
      <trkpt lat="50.07525" lon="4.56615">
        <ele>222</ele>
        <time>2023-02-18T09:29:37Z</time>
      </trkpt>
      <trkpt lat="50.07527" lon="4.56629">
        <ele>222</ele>
        <time>2023-02-18T09:29:49Z</time>
      </trkpt>
      <trkpt lat="50.07529" lon="4.56645">
        <ele>222</ele>
        <time>2023-02-18T09:30:00Z</time>
      </trkpt>
      <trkpt lat="50.07533" lon="4.56658">
        <ele>222</ele>
        <time>2023-02-18T09:30:05Z</time>
      </trkpt>
      <trkpt lat="50.07535" lon="4.56672">
        <ele>221</ele>
        <time>2023-02-18T09:30:16Z</time>
      </trkpt>
      <trkpt lat="50.07538" lon="4.56686">
        <ele>221</ele>
        <time>2023-02-18T09:30:28Z</time>
      </trkpt>
      <trkpt lat="50.0754" lon="4.567">
        <ele>221</ele>
        <time>2023-02-18T09:30:36Z</time>
      </trkpt>
      <trkpt lat="50.07542" lon="4.56714">
        <ele>220</ele>
        <time>2023-02-18T09:30:43Z</time>
      </trkpt>
      <trkpt lat="50.07544" lon="4.56729">
        <ele>220</ele>
        <time>2023-02-18T09:30:51Z</time>
      </trkpt>
      <trkpt lat="50.07546" lon="4.56743">
        <ele>220</ele>
        <time>2023-02-18T09:30:59Z</time>
      </trkpt>
      <trkpt lat="50.0755" lon="4.56756">
        <ele>220</ele>
        <time>2023-02-18T09:31:07Z</time>
      </trkpt>
      <trkpt lat="50.07555" lon="4.56768">
        <ele>219</ele>
        <time>2023-02-18T09:31:13Z</time>
      </trkpt>
      <trkpt lat="50.0756" lon="4.56781">
        <ele>219</ele>
        <time>2023-02-18T09:31:20Z</time>
      </trkpt>
      <trkpt lat="50.07562" lon="4.56796">
        <ele>219</ele>
        <time>2023-02-18T09:31:27Z</time>
      </trkpt>
      <trkpt lat="50.07563" lon="4.56812">
        <ele>220</ele>
        <time>2023-02-18T09:31:35Z</time>
      </trkpt>
      <trkpt lat="50.07564" lon="4.56827">
        <ele>219</ele>
        <time>2023-02-18T09:31:44Z</time>
      </trkpt>
      <trkpt lat="50.07565" lon="4.56842">
        <ele>219</ele>
        <time>2023-02-18T09:31:52Z</time>
      </trkpt>
      <trkpt lat="50.07567" lon="4.56855">
        <ele>219</ele>
        <time>2023-02-18T09:32:00Z</time>
      </trkpt>
      <trkpt lat="50.07572" lon="4.56869">
        <ele>219</ele>
        <time>2023-02-18T09:32:09Z</time>
      </trkpt>
      <trkpt lat="50.07575" lon="4.56883">
        <ele>219</ele>
        <time>2023-02-18T09:32:17Z</time>
      </trkpt>
      <trkpt lat="50.07578" lon="4.56897">
        <ele>219</ele>
        <time>2023-02-18T09:32:24Z</time>
      </trkpt>
      <trkpt lat="50.07584" lon="4.56908">
        <ele>218</ele>
        <time>2023-02-18T09:32:30Z</time>
      </trkpt>
      <trkpt lat="50.07589" lon="4.56921">
        <ele>219</ele>
        <time>2023-02-18T09:32:39Z</time>
      </trkpt>
      <trkpt lat="50.07594" lon="4.56933">
        <ele>218</ele>
        <time>2023-02-18T09:32:50Z</time>
      </trkpt>
      <trkpt lat="50.07599" lon="4.56945">
        <ele>219</ele>
        <time>2023-02-18T09:33:02Z</time>
      </trkpt>
      <trkpt lat="50.07605" lon="4.56956">
        <ele>218</ele>
        <time>2023-02-18T09:33:10Z</time>
      </trkpt>
      <trkpt lat="50.07612" lon="4.56966">
        <ele>218</ele>
        <time>2023-02-18T09:33:20Z</time>
      </trkpt>
      <trkpt lat="50.0762" lon="4.56979">
        <ele>218</ele>
        <time>2023-02-18T09:33:27Z</time>
      </trkpt>
      <trkpt lat="50.07627" lon="4.56989">
        <ele>218</ele>
        <time>2023-02-18T09:33:32Z</time>
      </trkpt>
      <trkpt lat="50.07634" lon="4.57">
        <ele>218</ele>
        <time>2023-02-18T09:33:47Z</time>
      </trkpt>
      <trkpt lat="50.07638" lon="4.57017">
        <ele>218</ele>
        <time>2023-02-18T09:33:52Z</time>
      </trkpt>
      <trkpt lat="50.07643" lon="4.57032">
        <ele>218</ele>
        <time>2023-02-18T09:33:59Z</time>
      </trkpt>
      <trkpt lat="50.0765" lon="4.57044">
        <ele>218</ele>
        <time>2023-02-18T09:34:08Z</time>
      </trkpt>
      <trkpt lat="50.07656" lon="4.57054">
        <ele>218</ele>
        <time>2023-02-18T09:34:14Z</time>
      </trkpt>
      <trkpt lat="50.07663" lon="4.57066">
        <ele>218</ele>
        <time>2023-02-18T09:34:21Z</time>
      </trkpt>
      <trkpt lat="50.07669" lon="4.57063">
        <ele>218</ele>
        <time>2023-02-18T09:34:49Z</time>
      </trkpt>
      <trkpt lat="50.07674" lon="4.57054">
        <ele>218</ele>
        <time>2023-02-18T09:35:01Z</time>
      </trkpt>
      <trkpt lat="50.07678" lon="4.57041">
        <ele>218</ele>
        <time>2023-02-18T09:35:13Z</time>
      </trkpt>
      <trkpt lat="50.07681" lon="4.57026">
        <ele>218</ele>
        <time>2023-02-18T09:35:22Z</time>
      </trkpt>
      <trkpt lat="50.07681" lon="4.5701">
        <ele>218</ele>
        <time>2023-02-18T09:35:35Z</time>
      </trkpt>
      <trkpt lat="50.07681" lon="4.56993">
        <ele>218</ele>
        <time>2023-02-18T09:35:45Z</time>
      </trkpt>
      <trkpt lat="50.07679" lon="4.56978">
        <ele>218</ele>
        <time>2023-02-18T09:35:54Z</time>
      </trkpt>
      <trkpt lat="50.07673" lon="4.56966">
        <ele>218</ele>
        <time>2023-02-18T09:36:02Z</time>
      </trkpt>
      <trkpt lat="50.07668" lon="4.56953">
        <ele>218</ele>
        <time>2023-02-18T09:36:11Z</time>
      </trkpt>
      <trkpt lat="50.07664" lon="4.56939">
        <ele>218</ele>
        <time>2023-02-18T09:36:17Z</time>
      </trkpt>
      <trkpt lat="50.0766" lon="4.56925">
        <ele>219</ele>
        <time>2023-02-18T09:36:29Z</time>
      </trkpt>
      <trkpt lat="50.07655" lon="4.56912">
        <ele>219</ele>
        <time>2023-02-18T09:36:38Z</time>
      </trkpt>
      <trkpt lat="50.07649" lon="4.56898">
        <ele>219</ele>
        <time>2023-02-18T09:36:44Z</time>
      </trkpt>
      <trkpt lat="50.07645" lon="4.56883">
        <ele>219</ele>
        <time>2023-02-18T09:36:50Z</time>
      </trkpt>
      <trkpt lat="50.07641" lon="4.56869">
        <ele>219</ele>
        <time>2023-02-18T09:36:55Z</time>
      </trkpt>
      <trkpt lat="50.07637" lon="4.56855">
        <ele>219</ele>
        <time>2023-02-18T09:37:04Z</time>
      </trkpt>
      <trkpt lat="50.07634" lon="4.56841">
        <ele>220</ele>
        <time>2023-02-18T09:37:15Z</time>
      </trkpt>
      <trkpt lat="50.07631" lon="4.56827">
        <ele>220</ele>
        <time>2023-02-18T09:37:23Z</time>
      </trkpt>
      <trkpt lat="50.07628" lon="4.56813">
        <ele>219</ele>
        <time>2023-02-18T09:37:30Z</time>
      </trkpt>
      <trkpt lat="50.07627" lon="4.56798">
        <ele>220</ele>
        <time>2023-02-18T09:37:41Z</time>
      </trkpt>
      <trkpt lat="50.07624" lon="4.56784">
        <ele>220</ele>
        <time>2023-02-18T09:37:53Z</time>
      </trkpt>
      <trkpt lat="50.07619" lon="4.56772">
        <ele>220</ele>
        <time>2023-02-18T09:38:01Z</time>
      </trkpt>
      <trkpt lat="50.07614" lon="4.56759">
        <ele>221</ele>
        <time>2023-02-18T09:38:07Z</time>
      </trkpt>
      <trkpt lat="50.07609" lon="4.56746">
        <ele>221</ele>
        <time>2023-02-18T09:38:15Z</time>
      </trkpt>
      <trkpt lat="50.07605" lon="4.56731">
        <ele>221</ele>
        <time>2023-02-18T09:38:23Z</time>
      </trkpt>
      <trkpt lat="50.07601" lon="4.56717">
        <ele>221</ele>
        <time>2023-02-18T09:38:32Z</time>
      </trkpt>
      <trkpt lat="50.07597" lon="4.56704">
        <ele>221</ele>
        <time>2023-02-18T09:38:41Z</time>
      </trkpt>
      <trkpt lat="50.07595" lon="4.5669">
        <ele>221</ele>
        <time>2023-02-18T09:38:58Z</time>
      </trkpt>
      <trkpt lat="50.07593" lon="4.56677">
        <ele>222</ele>
        <time>2023-02-18T09:39:07Z</time>
      </trkpt>
      <trkpt lat="50.07591" lon="4.56662">
        <ele>222</ele>
        <time>2023-02-18T09:39:18Z</time>
      </trkpt>
      <trkpt lat="50.07589" lon="4.56648">
        <ele>222</ele>
        <time>2023-02-18T09:39:25Z</time>
      </trkpt>
      <trkpt lat="50.07588" lon="4.56633">
        <ele>222</ele>
        <time>2023-02-18T09:39:34Z</time>
      </trkpt>
      <trkpt lat="50.07588" lon="4.56618">
        <ele>222</ele>
        <time>2023-02-18T09:39:40Z</time>
      </trkpt>
      <trkpt lat="50.07588" lon="4.56602">
        <ele>222</ele>
        <time>2023-02-18T09:39:52Z</time>
      </trkpt>
      <trkpt lat="50.07591" lon="4.56584">
        <ele>223</ele>
        <time>2023-02-18T09:39:57Z</time>
      </trkpt>
      <trkpt lat="50.07594" lon="4.56569">
        <ele>223</ele>
        <time>2023-02-18T09:40:02Z</time>
      </trkpt>
      <trkpt lat="50.07597" lon="4.56555">
        <ele>223</ele>
        <time>2023-02-18T09:40:19Z</time>
      </trkpt>
      <trkpt lat="50.07602" lon="4.56543">
        <ele>223</ele>
        <time>2023-02-18T09:40:28Z</time>
      </trkpt>
      <trkpt lat="50.07609" lon="4.56535">
        <ele>223</ele>
        <time>2023-02-18T09:40:36Z</time>
      </trkpt>
      <trkpt lat="50.07616" lon="4.56525">
        <ele>223</ele>
        <time>2023-02-18T09:40:45Z</time>
      </trkpt>
      <trkpt lat="50.07625" lon="4.56519">
        <ele>223</ele>
        <time>2023-02-18T09:40:53Z</time>
      </trkpt>
      <trkpt lat="50.07633" lon="4.56512">
        <ele>224</ele>
        <time>2023-02-18T09:41:05Z</time>
      </trkpt>
      <trkpt lat="50.07642" lon="4.56506">
        <ele>224</ele>
        <time>2023-02-18T09:41:21Z</time>
      </trkpt>
      <trkpt lat="50.07652" lon="4.56497">
        <ele>224</ele>
        <time>2023-02-18T09:41:31Z</time>
      </trkpt>
      <trkpt lat="50.07662" lon="4.5649">
        <ele>224</ele>
        <time>2023-02-18T09:41:43Z</time>
      </trkpt>
      <trkpt lat="50.07672" lon="4.56487">
        <ele>224</ele>
        <time>2023-02-18T09:41:50Z</time>
      </trkpt>
      <trkpt lat="50.07681" lon="4.56481">
        <ele>224</ele>
        <time>2023-02-18T09:41:59Z</time>
      </trkpt>
      <trkpt lat="50.0769" lon="4.56476">
        <ele>224</ele>
        <time>2023-02-18T09:42:06Z</time>
      </trkpt>
      <trkpt lat="50.07698" lon="4.56468">
        <ele>224</ele>
        <time>2023-02-18T09:42:15Z</time>
      </trkpt>
      <trkpt lat="50.07707" lon="4.56462">
        <ele>224</ele>
        <time>2023-02-18T09:42:21Z</time>
      </trkpt>
      <trkpt lat="50.07716" lon="4.56456">
        <ele>224</ele>
        <time>2023-02-18T09:42:28Z</time>
      </trkpt>
      <trkpt lat="50.07724" lon="4.56449">
        <ele>224</ele>
        <time>2023-02-18T09:42:41Z</time>
      </trkpt>
      <trkpt lat="50.07728" lon="4.56437">
        <ele>224</ele>
        <time>2023-02-18T09:44:10Z</time>
      </trkpt>
      <trkpt lat="50.07733" lon="4.5643">
        <ele>224</ele>
        <time>2023-02-18T10:44:14Z</time>
      </trkpt>
      <trkpt lat="50.07731" lon="4.56417">
        <ele>225</ele>
        <time>2023-02-18T10:44:24Z</time>
      </trkpt>
      <trkpt lat="50.07729" lon="4.56403">
        <ele>226</ele>
        <time>2023-02-18T10:44:32Z</time>
      </trkpt>
      <trkpt lat="50.07728" lon="4.56388">
        <ele>226</ele>
        <time>2023-02-18T10:44:44Z</time>
      </trkpt>
      <trkpt lat="50.07728" lon="4.56373">
        <ele>226</ele>
        <time>2023-02-18T10:44:51Z</time>
      </trkpt>
      <trkpt lat="50.07728" lon="4.56358">
        <ele>226</ele>
        <time>2023-02-18T10:44:59Z</time>
      </trkpt>
      <trkpt lat="50.07727" lon="4.56343">
        <ele>226</ele>
        <time>2023-02-18T10:45:07Z</time>
      </trkpt>
      <trkpt lat="50.07725" lon="4.56328">
        <ele>226</ele>
        <time>2023-02-18T10:45:14Z</time>
      </trkpt>
      <trkpt lat="50.07723" lon="4.56314">
        <ele>226</ele>
        <time>2023-02-18T10:45:22Z</time>
      </trkpt>
      <trkpt lat="50.0772" lon="4.56299">
        <ele>226</ele>
        <time>2023-02-18T10:45:30Z</time>
      </trkpt>
      <trkpt lat="50.07716" lon="4.56284">
        <ele>227</ele>
        <time>2023-02-18T10:45:38Z</time>
      </trkpt>
      <trkpt lat="50.07713" lon="4.56269">
        <ele>226</ele>
        <time>2023-02-18T10:45:47Z</time>
      </trkpt>
      <trkpt lat="50.0771" lon="4.56255">
        <ele>226</ele>
        <time>2023-02-18T10:45:58Z</time>
      </trkpt>
      <trkpt lat="50.07707" lon="4.56239">
        <ele>226</ele>
        <time>2023-02-18T10:46:07Z</time>
      </trkpt>
      <trkpt lat="50.07704" lon="4.56225">
        <ele>226</ele>
        <time>2023-02-18T10:46:13Z</time>
      </trkpt>
      <trkpt lat="50.077" lon="4.56211">
        <ele>226</ele>
        <time>2023-02-18T10:46:21Z</time>
      </trkpt>
      <trkpt lat="50.07698" lon="4.56197">
        <ele>226</ele>
        <time>2023-02-18T10:46:27Z</time>
      </trkpt>
      <trkpt lat="50.07696" lon="4.56183">
        <ele>226</ele>
        <time>2023-02-18T10:46:38Z</time>
      </trkpt>
      <trkpt lat="50.07694" lon="4.56168">
        <ele>226</ele>
        <time>2023-02-18T10:46:45Z</time>
      </trkpt>
      <trkpt lat="50.0769" lon="4.56155">
        <ele>226</ele>
        <time>2023-02-18T10:46:53Z</time>
      </trkpt>
      <trkpt lat="50.07685" lon="4.56142">
        <ele>226</ele>
        <time>2023-02-18T10:46:59Z</time>
      </trkpt>
      <trkpt lat="50.07679" lon="4.5613">
        <ele>226</ele>
        <time>2023-02-18T10:47:09Z</time>
      </trkpt>
      <trkpt lat="50.07674" lon="4.56117">
        <ele>226</ele>
        <time>2023-02-18T10:47:20Z</time>
      </trkpt>
      <trkpt lat="50.07671" lon="4.56103">
        <ele>227</ele>
        <time>2023-02-18T10:47:29Z</time>
      </trkpt>
      <trkpt lat="50.07667" lon="4.56089">
        <ele>227</ele>
        <time>2023-02-18T10:47:35Z</time>
      </trkpt>
      <trkpt lat="50.07663" lon="4.56074">
        <ele>227</ele>
        <time>2023-02-18T10:47:44Z</time>
      </trkpt>
      <trkpt lat="50.07659" lon="4.5606">
        <ele>226</ele>
        <time>2023-02-18T10:47:52Z</time>
      </trkpt>
      <trkpt lat="50.07656" lon="4.56045">
        <ele>227</ele>
        <time>2023-02-18T10:48:01Z</time>
      </trkpt>
      <trkpt lat="50.07653" lon="4.5603">
        <ele>226</ele>
        <time>2023-02-18T10:48:11Z</time>
      </trkpt>
      <trkpt lat="50.0765" lon="4.56015">
        <ele>226</ele>
        <time>2023-02-18T10:48:20Z</time>
      </trkpt>
      <trkpt lat="50.07646" lon="4.56001">
        <ele>226</ele>
        <time>2023-02-18T10:48:26Z</time>
      </trkpt>
      <trkpt lat="50.07643" lon="4.55987">
        <ele>226</ele>
        <time>2023-02-18T10:48:36Z</time>
      </trkpt>
      <trkpt lat="50.07639" lon="4.55973">
        <ele>227</ele>
        <time>2023-02-18T10:48:45Z</time>
      </trkpt>
      <trkpt lat="50.07635" lon="4.55959">
        <ele>227</ele>
        <time>2023-02-18T10:48:51Z</time>
      </trkpt>
      <trkpt lat="50.07631" lon="4.55944">
        <ele>227</ele>
        <time>2023-02-18T10:48:58Z</time>
      </trkpt>
      <trkpt lat="50.07628" lon="4.55929">
        <ele>227</ele>
        <time>2023-02-18T10:49:07Z</time>
      </trkpt>
      <trkpt lat="50.07625" lon="4.55915">
        <ele>226</ele>
        <time>2023-02-18T10:49:15Z</time>
      </trkpt>
      <trkpt lat="50.07622" lon="4.55901">
        <ele>226</ele>
        <time>2023-02-18T10:49:23Z</time>
      </trkpt>
      <trkpt lat="50.07619" lon="4.55887">
        <ele>226</ele>
        <time>2023-02-18T10:49:30Z</time>
      </trkpt>
      <trkpt lat="50.07616" lon="4.55873">
        <ele>226</ele>
        <time>2023-02-18T10:49:39Z</time>
      </trkpt>
      <trkpt lat="50.07614" lon="4.55859">
        <ele>226</ele>
        <time>2023-02-18T10:49:48Z</time>
      </trkpt>
      <trkpt lat="50.07614" lon="4.55863">
        <ele>226</ele>
        <time>2023-02-18T10:50:12Z</time>
      </trkpt>
      <trkpt lat="50.07619" lon="4.5586">
        <ele>226</ele>
        <time>2023-02-18T10:50:36Z</time>
      </trkpt>
      <trkpt lat="50.07623" lon="4.55851">
        <ele>226</ele>
        <time>2023-02-18T10:50:42Z</time>
      </trkpt>
      <trkpt lat="50.07626" lon="4.55838">
        <ele>226</ele>
        <time>2023-02-18T10:50:52Z</time>
      </trkpt>
      <trkpt lat="50.07626" lon="4.55824">
        <ele>226</ele>
        <time>2023-02-18T10:50:59Z</time>
      </trkpt>
      <trkpt lat="50.07626" lon="4.55809">
        <ele>226</ele>
        <time>2023-02-18T10:51:06Z</time>
      </trkpt>
      <trkpt lat="50.07627" lon="4.55794">
        <ele>226</ele>
        <time>2023-02-18T10:51:13Z</time>
      </trkpt>
      <trkpt lat="50.07629" lon="4.5578">
        <ele>226</ele>
        <time>2023-02-18T10:51:21Z</time>
      </trkpt>
      <trkpt lat="50.07633" lon="4.55766">
        <ele>225</ele>
        <time>2023-02-18T10:51:30Z</time>
      </trkpt>
      <trkpt lat="50.07636" lon="4.55752">
        <ele>225</ele>
        <time>2023-02-18T10:51:38Z</time>
      </trkpt>
      <trkpt lat="50.07639" lon="4.55738">
        <ele>225</ele>
        <time>2023-02-18T10:51:52Z</time>
      </trkpt>
      <trkpt lat="50.07639" lon="4.55724">
        <ele>224</ele>
        <time>2023-02-18T10:52:01Z</time>
      </trkpt>
      <trkpt lat="50.07638" lon="4.55709">
        <ele>224</ele>
        <time>2023-02-18T10:52:08Z</time>
      </trkpt>
      <trkpt lat="50.07633" lon="4.55698">
        <ele>224</ele>
        <time>2023-02-18T10:52:15Z</time>
      </trkpt>
      <trkpt lat="50.07628" lon="4.55686">
        <ele>225</ele>
        <time>2023-02-18T10:52:25Z</time>
      </trkpt>
      <trkpt lat="50.07623" lon="4.55674">
        <ele>225</ele>
        <time>2023-02-18T10:52:31Z</time>
      </trkpt>
      <trkpt lat="50.0762" lon="4.5566">
        <ele>225</ele>
        <time>2023-02-18T10:52:40Z</time>
      </trkpt>
      <trkpt lat="50.07617" lon="4.55646">
        <ele>225</ele>
        <time>2023-02-18T10:52:48Z</time>
      </trkpt>
      <trkpt lat="50.07614" lon="4.55632">
        <ele>224</ele>
        <time>2023-02-18T10:52:57Z</time>
      </trkpt>
      <trkpt lat="50.07609" lon="4.5562">
        <ele>224</ele>
        <time>2023-02-18T10:53:07Z</time>
      </trkpt>
      <trkpt lat="50.07604" lon="4.55608">
        <ele>224</ele>
        <time>2023-02-18T10:53:13Z</time>
      </trkpt>
      <trkpt lat="50.07598" lon="4.55597">
        <ele>224</ele>
        <time>2023-02-18T10:53:22Z</time>
      </trkpt>
      <trkpt lat="50.07596" lon="4.55585">
        <ele>223</ele>
        <time>2023-02-18T10:53:39Z</time>
      </trkpt>
      <trkpt lat="50.07592" lon="4.55571">
        <ele>222</ele>
        <time>2023-02-18T10:54:06Z</time>
      </trkpt>
      <trkpt lat="50.07588" lon="4.55558">
        <ele>223</ele>
        <time>2023-02-18T10:54:24Z</time>
      </trkpt>
      <trkpt lat="50.07583" lon="4.55545">
        <ele>223</ele>
        <time>2023-02-18T10:54:40Z</time>
      </trkpt>
      <trkpt lat="50.07578" lon="4.55532">
        <ele>223</ele>
        <time>2023-02-18T10:54:47Z</time>
      </trkpt>
      <trkpt lat="50.0757" lon="4.55525">
        <ele>224</ele>
        <time>2023-02-18T10:55:08Z</time>
      </trkpt>
      <trkpt lat="50.07562" lon="4.55526">
        <ele>225</ele>
        <time>2023-02-18T10:55:21Z</time>
      </trkpt>
      <trkpt lat="50.07553" lon="4.5553">
        <ele>226</ele>
        <time>2023-02-18T10:55:28Z</time>
      </trkpt>
      <trkpt lat="50.07545" lon="4.55536">
        <ele>225</ele>
        <time>2023-02-18T10:55:37Z</time>
      </trkpt>
      <trkpt lat="50.07538" lon="4.55546">
        <ele>226</ele>
        <time>2023-02-18T10:55:45Z</time>
      </trkpt>
      <trkpt lat="50.07531" lon="4.55555">
        <ele>226</ele>
        <time>2023-02-18T10:55:52Z</time>
      </trkpt>
      <trkpt lat="50.07524" lon="4.55566">
        <ele>227</ele>
        <time>2023-02-18T10:56:05Z</time>
      </trkpt>
      <trkpt lat="50.07518" lon="4.55577">
        <ele>228</ele>
        <time>2023-02-18T10:56:11Z</time>
      </trkpt>
      <trkpt lat="50.07511" lon="4.55587">
        <ele>229</ele>
        <time>2023-02-18T10:56:17Z</time>
      </trkpt>
      <trkpt lat="50.07503" lon="4.55596">
        <ele>229</ele>
        <time>2023-02-18T10:56:24Z</time>
      </trkpt>
      <trkpt lat="50.07494" lon="4.55605">
        <ele>229</ele>
        <time>2023-02-18T10:56:33Z</time>
      </trkpt>
      <trkpt lat="50.07485" lon="4.55607">
        <ele>229</ele>
        <time>2023-02-18T10:56:41Z</time>
      </trkpt>
      <trkpt lat="50.07476" lon="4.55605">
        <ele>228</ele>
        <time>2023-02-18T10:56:48Z</time>
      </trkpt>
      <trkpt lat="50.07467" lon="4.55603">
        <ele>228</ele>
        <time>2023-02-18T10:56:58Z</time>
      </trkpt>
      <trkpt lat="50.07458" lon="4.556">
        <ele>227</ele>
        <time>2023-02-18T10:57:06Z</time>
      </trkpt>
      <trkpt lat="50.07448" lon="4.55599">
        <ele>226</ele>
        <time>2023-02-18T10:57:15Z</time>
      </trkpt>
      <trkpt lat="50.07439" lon="4.55597">
        <ele>226</ele>
        <time>2023-02-18T10:57:22Z</time>
      </trkpt>
      <trkpt lat="50.0743" lon="4.55598">
        <ele>225</ele>
        <time>2023-02-18T10:57:31Z</time>
      </trkpt>
      <trkpt lat="50.07421" lon="4.556">
        <ele>224</ele>
        <time>2023-02-18T10:57:37Z</time>
      </trkpt>
      <trkpt lat="50.07411" lon="4.55602">
        <ele>224</ele>
        <time>2023-02-18T10:57:45Z</time>
      </trkpt>
      <trkpt lat="50.07402" lon="4.55603">
        <ele>223</ele>
        <time>2023-02-18T10:57:52Z</time>
      </trkpt>
      <trkpt lat="50.07392" lon="4.55605">
        <ele>222</ele>
        <time>2023-02-18T10:58:03Z</time>
      </trkpt>
      <trkpt lat="50.07383" lon="4.55607">
        <ele>221</ele>
        <time>2023-02-18T10:58:11Z</time>
      </trkpt>
      <trkpt lat="50.07374" lon="4.55606">
        <ele>219</ele>
        <time>2023-02-18T10:58:19Z</time>
      </trkpt>
      <trkpt lat="50.07365" lon="4.55607">
        <ele>219</ele>
        <time>2023-02-18T10:58:28Z</time>
      </trkpt>
      <trkpt lat="50.07355" lon="4.55607">
        <ele>218</ele>
        <time>2023-02-18T10:58:35Z</time>
      </trkpt>
      <trkpt lat="50.07346" lon="4.55609">
        <ele>217</ele>
        <time>2023-02-18T10:58:44Z</time>
      </trkpt>
      <trkpt lat="50.07337" lon="4.5561">
        <ele>216</ele>
        <time>2023-02-18T10:58:53Z</time>
      </trkpt>
      <trkpt lat="50.07328" lon="4.55604">
        <ele>215</ele>
        <time>2023-02-18T10:59:01Z</time>
      </trkpt>
      <trkpt lat="50.07324" lon="4.55593">
        <ele>216</ele>
        <time>2023-02-18T10:59:09Z</time>
      </trkpt>
      <trkpt lat="50.07322" lon="4.5558">
        <ele>215</ele>
        <time>2023-02-18T10:59:21Z</time>
      </trkpt>
      <trkpt lat="50.07317" lon="4.55568">
        <ele>215</ele>
        <time>2023-02-18T10:59:31Z</time>
      </trkpt>
      <trkpt lat="50.07312" lon="4.55555">
        <ele>214</ele>
        <time>2023-02-18T10:59:39Z</time>
      </trkpt>
      <trkpt lat="50.07307" lon="4.55543">
        <ele>214</ele>
        <time>2023-02-18T10:59:46Z</time>
      </trkpt>
      <trkpt lat="50.07301" lon="4.55531">
        <ele>214</ele>
        <time>2023-02-18T10:59:54Z</time>
      </trkpt>
      <trkpt lat="50.07295" lon="4.55518">
        <ele>214</ele>
        <time>2023-02-18T11:00:03Z</time>
      </trkpt>
      <trkpt lat="50.0729" lon="4.55505">
        <ele>214</ele>
        <time>2023-02-18T11:00:11Z</time>
      </trkpt>
      <trkpt lat="50.07286" lon="4.55492">
        <ele>214</ele>
        <time>2023-02-18T11:00:19Z</time>
      </trkpt>
      <trkpt lat="50.07281" lon="4.55479">
        <ele>214</ele>
        <time>2023-02-18T11:00:28Z</time>
      </trkpt>
      <trkpt lat="50.07277" lon="4.55465">
        <ele>214</ele>
        <time>2023-02-18T11:00:36Z</time>
      </trkpt>
      <trkpt lat="50.07273" lon="4.55451">
        <ele>214</ele>
        <time>2023-02-18T11:00:44Z</time>
      </trkpt>
      <trkpt lat="50.0727" lon="4.55437">
        <ele>214</ele>
        <time>2023-02-18T11:00:50Z</time>
      </trkpt>
      <trkpt lat="50.07267" lon="4.55423">
        <ele>214</ele>
        <time>2023-02-18T11:00:57Z</time>
      </trkpt>
      <trkpt lat="50.07263" lon="4.55409">
        <ele>213</ele>
        <time>2023-02-18T11:01:08Z</time>
      </trkpt>
      <trkpt lat="50.07258" lon="4.55396">
        <ele>213</ele>
        <time>2023-02-18T11:01:17Z</time>
      </trkpt>
      <trkpt lat="50.07257" lon="4.55381">
        <ele>213</ele>
        <time>2023-02-18T11:01:24Z</time>
      </trkpt>
      <trkpt lat="50.0726" lon="4.55368">
        <ele>214</ele>
        <time>2023-02-18T11:01:36Z</time>
      </trkpt>
      <trkpt lat="50.07264" lon="4.55355">
        <ele>215</ele>
        <time>2023-02-18T11:01:45Z</time>
      </trkpt>
      <trkpt lat="50.07269" lon="4.55342">
        <ele>215</ele>
        <time>2023-02-18T11:01:55Z</time>
      </trkpt>
      <trkpt lat="50.0727" lon="4.55327">
        <ele>215</ele>
        <time>2023-02-18T11:02:10Z</time>
      </trkpt>
      <trkpt lat="50.07269" lon="4.55312">
        <ele>215</ele>
        <time>2023-02-18T11:02:17Z</time>
      </trkpt>
      <trkpt lat="50.07268" lon="4.55298">
        <ele>216</ele>
        <time>2023-02-18T11:02:27Z</time>
      </trkpt>
      <trkpt lat="50.07266" lon="4.55284">
        <ele>216</ele>
        <time>2023-02-18T11:02:36Z</time>
      </trkpt>
      <trkpt lat="50.07262" lon="4.55271">
        <ele>216</ele>
        <time>2023-02-18T11:02:46Z</time>
      </trkpt>
      <trkpt lat="50.07259" lon="4.55257">
        <ele>216</ele>
        <time>2023-02-18T11:02:56Z</time>
      </trkpt>
      <trkpt lat="50.07259" lon="4.55242">
        <ele>215</ele>
        <time>2023-02-18T11:03:03Z</time>
      </trkpt>
      <trkpt lat="50.07263" lon="4.55228">
        <ele>215</ele>
        <time>2023-02-18T11:03:08Z</time>
      </trkpt>
      <trkpt lat="50.07264" lon="4.55214">
        <ele>214</ele>
        <time>2023-02-18T11:03:21Z</time>
      </trkpt>
      <trkpt lat="50.07263" lon="4.55199">
        <ele>213</ele>
        <time>2023-02-18T11:03:33Z</time>
      </trkpt>
      <trkpt lat="50.07261" lon="4.55184">
        <ele>212</ele>
        <time>2023-02-18T11:03:40Z</time>
      </trkpt>
      <trkpt lat="50.07261" lon="4.5517">
        <ele>209</ele>
        <time>2023-02-18T11:03:59Z</time>
      </trkpt>
      <trkpt lat="50.07263" lon="4.55156">
        <ele>206</ele>
        <time>2023-02-18T11:04:17Z</time>
      </trkpt>
      <trkpt lat="50.07263" lon="4.55142">
        <ele>204</ele>
        <time>2023-02-18T11:04:28Z</time>
      </trkpt>
      <trkpt lat="50.07268" lon="4.55131">
        <ele>201</ele>
        <time>2023-02-18T11:04:36Z</time>
      </trkpt>
      <trkpt lat="50.07274" lon="4.55119">
        <ele>199</ele>
        <time>2023-02-18T11:04:47Z</time>
      </trkpt>
      <trkpt lat="50.07279" lon="4.55107">
        <ele>198</ele>
        <time>2023-02-18T11:04:57Z</time>
      </trkpt>
      <trkpt lat="50.07287" lon="4.551">
        <ele>197</ele>
        <time>2023-02-18T11:05:06Z</time>
      </trkpt>
      <trkpt lat="50.07294" lon="4.55091">
        <ele>195</ele>
        <time>2023-02-18T11:05:16Z</time>
      </trkpt>
      <trkpt lat="50.07302" lon="4.55081">
        <ele>193</ele>
        <time>2023-02-18T11:05:31Z</time>
      </trkpt>
      <trkpt lat="50.0731" lon="4.55075">
        <ele>191</ele>
        <time>2023-02-18T11:05:42Z</time>
      </trkpt>
      <trkpt lat="50.07318" lon="4.55066">
        <ele>188</ele>
        <time>2023-02-18T11:05:56Z</time>
      </trkpt>
      <trkpt lat="50.07326" lon="4.55063">
        <ele>186</ele>
        <time>2023-02-18T11:06:10Z</time>
      </trkpt>
      <trkpt lat="50.07332" lon="4.55054">
        <ele>183</ele>
        <time>2023-02-18T11:06:37Z</time>
      </trkpt>
      <trkpt lat="50.07341" lon="4.5505">
        <ele>182</ele>
        <time>2023-02-18T11:06:46Z</time>
      </trkpt>
      <trkpt lat="50.0735" lon="4.55048">
        <ele>181</ele>
        <time>2023-02-18T11:06:54Z</time>
      </trkpt>
      <trkpt lat="50.07359" lon="4.55045">
        <ele>180</ele>
        <time>2023-02-18T11:07:02Z</time>
      </trkpt>
      <trkpt lat="50.07367" lon="4.55039">
        <ele>179</ele>
        <time>2023-02-18T11:07:11Z</time>
      </trkpt>
      <trkpt lat="50.07375" lon="4.55032">
        <ele>178</ele>
        <time>2023-02-18T11:07:19Z</time>
      </trkpt>
      <trkpt lat="50.07384" lon="4.55026">
        <ele>177</ele>
        <time>2023-02-18T11:07:29Z</time>
      </trkpt>
      <trkpt lat="50.07392" lon="4.55019">
        <ele>175</ele>
        <time>2023-02-18T11:07:42Z</time>
      </trkpt>
      <trkpt lat="50.074" lon="4.55012">
        <ele>173</ele>
        <time>2023-02-18T11:08:06Z</time>
      </trkpt>
      <trkpt lat="50.07409" lon="4.55005">
        <ele>171</ele>
        <time>2023-02-18T11:08:17Z</time>
      </trkpt>
      <trkpt lat="50.07417" lon="4.55">
        <ele>168</ele>
        <time>2023-02-18T11:08:31Z</time>
      </trkpt>
      <trkpt lat="50.07426" lon="4.54993">
        <ele>165</ele>
        <time>2023-02-18T11:09:00Z</time>
      </trkpt>
      <trkpt lat="50.07434" lon="4.54996">
        <ele>164</ele>
        <time>2023-02-18T11:09:10Z</time>
      </trkpt>
      <trkpt lat="50.07442" lon="4.55001">
        <ele>163</ele>
        <time>2023-02-18T11:09:21Z</time>
      </trkpt>
      <trkpt lat="50.0744" lon="4.55">
        <ele>164</ele>
        <time>2023-02-18T11:10:08Z</time>
      </trkpt>
      <trkpt lat="50.07435" lon="4.54993">
        <ele>163</ele>
        <time>2023-02-18T11:10:16Z</time>
      </trkpt>
      <trkpt lat="50.07435" lon="4.5498">
        <ele>163</ele>
        <time>2023-02-18T11:10:24Z</time>
      </trkpt>
      <trkpt lat="50.07437" lon="4.54966">
        <ele>162</ele>
        <time>2023-02-18T11:10:32Z</time>
      </trkpt>
      <trkpt lat="50.07441" lon="4.54954">
        <ele>162</ele>
        <time>2023-02-18T11:10:38Z</time>
      </trkpt>
      <trkpt lat="50.07447" lon="4.54943">
        <ele>161</ele>
        <time>2023-02-18T11:10:48Z</time>
      </trkpt>
      <trkpt lat="50.07444" lon="4.54933">
        <ele>161</ele>
        <time>2023-02-18T11:11:02Z</time>
      </trkpt>
      <trkpt lat="50.07437" lon="4.54929">
        <ele>161</ele>
        <time>2023-02-18T11:11:10Z</time>
      </trkpt>
      <trkpt lat="50.07429" lon="4.54928">
        <ele>161</ele>
        <time>2023-02-18T11:11:20Z</time>
      </trkpt>
      <trkpt lat="50.0742" lon="4.54931">
        <ele>161</ele>
        <time>2023-02-18T11:11:29Z</time>
      </trkpt>
      <trkpt lat="50.07411" lon="4.5493">
        <ele>161</ele>
        <time>2023-02-18T11:11:43Z</time>
      </trkpt>
      <trkpt lat="50.07403" lon="4.54922">
        <ele>161</ele>
        <time>2023-02-18T11:11:51Z</time>
      </trkpt>
      <trkpt lat="50.07398" lon="4.54909">
        <ele>162</ele>
        <time>2023-02-18T11:11:56Z</time>
      </trkpt>
      <trkpt lat="50.07397" lon="4.54895">
        <ele>162</ele>
        <time>2023-02-18T11:12:10Z</time>
      </trkpt>
      <trkpt lat="50.07398" lon="4.54881">
        <ele>161</ele>
        <time>2023-02-18T11:12:20Z</time>
      </trkpt>
      <trkpt lat="50.07397" lon="4.54867">
        <ele>161</ele>
        <time>2023-02-18T11:12:27Z</time>
      </trkpt>
      <trkpt lat="50.07393" lon="4.54853">
        <ele>161</ele>
        <time>2023-02-18T11:12:35Z</time>
      </trkpt>
      <trkpt lat="50.07389" lon="4.5484">
        <ele>161</ele>
        <time>2023-02-18T11:12:41Z</time>
      </trkpt>
      <trkpt lat="50.07381" lon="4.54835">
        <ele>161</ele>
        <time>2023-02-18T11:12:46Z</time>
      </trkpt>
      <trkpt lat="50.07371" lon="4.54838">
        <ele>161</ele>
        <time>2023-02-18T11:12:51Z</time>
      </trkpt>
      <trkpt lat="50.07362" lon="4.54841">
        <ele>161</ele>
        <time>2023-02-18T11:13:00Z</time>
      </trkpt>
      <trkpt lat="50.07353" lon="4.54846">
        <ele>161</ele>
        <time>2023-02-18T11:13:09Z</time>
      </trkpt>
      <trkpt lat="50.07344" lon="4.5485">
        <ele>161</ele>
        <time>2023-02-18T11:13:15Z</time>
      </trkpt>
      <trkpt lat="50.07335" lon="4.54855">
        <ele>161</ele>
        <time>2023-02-18T11:13:22Z</time>
      </trkpt>
      <trkpt lat="50.07326" lon="4.54859">
        <ele>161</ele>
        <time>2023-02-18T11:13:32Z</time>
      </trkpt>
      <trkpt lat="50.07317" lon="4.54862">
        <ele>161</ele>
        <time>2023-02-18T11:13:41Z</time>
      </trkpt>
      <trkpt lat="50.07308" lon="4.54866">
        <ele>161</ele>
        <time>2023-02-18T11:13:51Z</time>
      </trkpt>
      <trkpt lat="50.07299" lon="4.5487">
        <ele>161</ele>
        <time>2023-02-18T11:14:00Z</time>
      </trkpt>
      <trkpt lat="50.07289" lon="4.54876">
        <ele>161</ele>
        <time>2023-02-18T11:14:07Z</time>
      </trkpt>
      <trkpt lat="50.07279" lon="4.54879">
        <ele>161</ele>
        <time>2023-02-18T11:14:15Z</time>
      </trkpt>
      <trkpt lat="50.0727" lon="4.54884">
        <ele>161</ele>
        <time>2023-02-18T11:14:24Z</time>
      </trkpt>
      <trkpt lat="50.07261" lon="4.54888">
        <ele>161</ele>
        <time>2023-02-18T11:14:32Z</time>
      </trkpt>
      <trkpt lat="50.07252" lon="4.54891">
        <ele>162</ele>
        <time>2023-02-18T11:14:42Z</time>
      </trkpt>
      <trkpt lat="50.07242" lon="4.54894">
        <ele>162</ele>
        <time>2023-02-18T11:14:50Z</time>
      </trkpt>
      <trkpt lat="50.07232" lon="4.54898">
        <ele>162</ele>
        <time>2023-02-18T11:14:56Z</time>
      </trkpt>
      <trkpt lat="50.07223" lon="4.54901">
        <ele>162</ele>
        <time>2023-02-18T11:15:05Z</time>
      </trkpt>
      <trkpt lat="50.07214" lon="4.54904">
        <ele>162</ele>
        <time>2023-02-18T11:15:14Z</time>
      </trkpt>
      <trkpt lat="50.07205" lon="4.54907">
        <ele>162</ele>
        <time>2023-02-18T11:15:21Z</time>
      </trkpt>
      <trkpt lat="50.07196" lon="4.54912">
        <ele>162</ele>
        <time>2023-02-18T11:15:28Z</time>
      </trkpt>
      <trkpt lat="50.07187" lon="4.54918">
        <ele>162</ele>
        <time>2023-02-18T11:15:34Z</time>
      </trkpt>
      <trkpt lat="50.07178" lon="4.5492">
        <ele>162</ele>
        <time>2023-02-18T11:15:42Z</time>
      </trkpt>
      <trkpt lat="50.07169" lon="4.54922">
        <ele>162</ele>
        <time>2023-02-18T11:15:49Z</time>
      </trkpt>
      <trkpt lat="50.07159" lon="4.54924">
        <ele>162</ele>
        <time>2023-02-18T11:15:58Z</time>
      </trkpt>
      <trkpt lat="50.0715" lon="4.54927">
        <ele>162</ele>
        <time>2023-02-18T11:16:05Z</time>
      </trkpt>
      <trkpt lat="50.07141" lon="4.54927">
        <ele>162</ele>
        <time>2023-02-18T11:16:12Z</time>
      </trkpt>
      <trkpt lat="50.07131" lon="4.54927">
        <ele>162</ele>
        <time>2023-02-18T11:16:20Z</time>
      </trkpt>
      <trkpt lat="50.07121" lon="4.54924">
        <ele>162</ele>
        <time>2023-02-18T11:16:29Z</time>
      </trkpt>
      <trkpt lat="50.07112" lon="4.54921">
        <ele>162</ele>
        <time>2023-02-18T11:16:37Z</time>
      </trkpt>
      <trkpt lat="50.07103" lon="4.54915">
        <ele>162</ele>
        <time>2023-02-18T11:16:44Z</time>
      </trkpt>
      <trkpt lat="50.07094" lon="4.54907">
        <ele>162</ele>
        <time>2023-02-18T11:16:56Z</time>
      </trkpt>
      <trkpt lat="50.07086" lon="4.54899">
        <ele>163</ele>
        <time>2023-02-18T11:17:03Z</time>
      </trkpt>
      <trkpt lat="50.07076" lon="4.54891">
        <ele>163</ele>
        <time>2023-02-18T11:17:10Z</time>
      </trkpt>
      <trkpt lat="50.07067" lon="4.54885">
        <ele>163</ele>
        <time>2023-02-18T11:17:19Z</time>
      </trkpt>
      <trkpt lat="50.07057" lon="4.54879">
        <ele>163</ele>
        <time>2023-02-18T11:17:29Z</time>
      </trkpt>
      <trkpt lat="50.07049" lon="4.54871">
        <ele>164</ele>
        <time>2023-02-18T11:17:38Z</time>
      </trkpt>
      <trkpt lat="50.07046" lon="4.54859">
        <ele>164</ele>
        <time>2023-02-18T11:17:45Z</time>
      </trkpt>
      <trkpt lat="50.07045" lon="4.54845">
        <ele>164</ele>
        <time>2023-02-18T11:17:57Z</time>
      </trkpt>
      <trkpt lat="50.07039" lon="4.54835">
        <ele>164</ele>
        <time>2023-02-18T11:18:06Z</time>
      </trkpt>
      <trkpt lat="50.07032" lon="4.54827">
        <ele>164</ele>
        <time>2023-02-18T11:18:15Z</time>
      </trkpt>
      <trkpt lat="50.07024" lon="4.5482">
        <ele>165</ele>
        <time>2023-02-18T11:18:20Z</time>
      </trkpt>
      <trkpt lat="50.07014" lon="4.54814">
        <ele>165</ele>
        <time>2023-02-18T11:18:25Z</time>
      </trkpt>
      <trkpt lat="50.07004" lon="4.54807">
        <ele>165</ele>
        <time>2023-02-18T11:18:33Z</time>
      </trkpt>
      <trkpt lat="50.06995" lon="4.54801">
        <ele>165</ele>
        <time>2023-02-18T11:18:42Z</time>
      </trkpt>
      <trkpt lat="50.06985" lon="4.54797">
        <ele>166</ele>
        <time>2023-02-18T11:18:51Z</time>
      </trkpt>
      <trkpt lat="50.06976" lon="4.54794">
        <ele>166</ele>
        <time>2023-02-18T11:18:58Z</time>
      </trkpt>
      <trkpt lat="50.06966" lon="4.54791">
        <ele>165</ele>
        <time>2023-02-18T11:19:06Z</time>
      </trkpt>
      <trkpt lat="50.06956" lon="4.5479">
        <ele>165</ele>
        <time>2023-02-18T11:19:15Z</time>
      </trkpt>
      <trkpt lat="50.06947" lon="4.54793">
        <ele>164</ele>
        <time>2023-02-18T11:19:41Z</time>
      </trkpt>
      <trkpt lat="50.06941" lon="4.54803">
        <ele>164</ele>
        <time>2023-02-18T11:19:54Z</time>
      </trkpt>
      <trkpt lat="50.06928" lon="4.548">
        <ele>164</ele>
        <time>2023-02-18T11:20:11Z</time>
      </trkpt>
      <trkpt lat="50.06935" lon="4.54777">
        <ele>164</ele>
        <time>2023-02-18T11:20:46Z</time>
      </trkpt>
      <trkpt lat="50.06926" lon="4.5478">
        <ele>164</ele>
        <time>2023-02-18T11:20:51Z</time>
      </trkpt>
    </trkseg>
  </trk>
</gpx>